sensor_id;sensor_type;location;lat;lon;timestamp;temperature;humidity
9486;DHT22;4781;48.776;9.200;2022-08-04T00:01:02;23.40;91.60
9486;DHT22;4781;48.776;9.200;2022-08-04T00:03:49;23.40;91.70
9486;DHT22;4781;48.776;9.200;2022-08-04T00:06:33;23.30;91.40
9486;DHT22;4781;48.776;9.200;2022-08-04T00:09:15;23.20;91.50
9486;DHT22;4781;48.776;9.200;2022-08-04T00:11:45;23.30;91.50
9486;DHT22;4781;48.776;9.200;2022-08-04T00:14:16;23.20;91.20
9486;DHT22;4781;48.776;9.200;2022-08-04T00:16:46;23.20;91.20
9486;DHT22;4781;48.776;9.200;2022-08-04T00:22:04;23.30;91.60
9486;DHT22;4781;48.776;9.200;2022-08-04T00:24:35;23.30;91.40
9486;DHT22;4781;48.776;9.200;2022-08-04T00:27:06;23.30;91.70
9486;DHT22;4781;48.776;9.200;2022-08-04T00:29:37;23.20;91.70
9486;DHT22;4781;48.776;9.200;2022-08-04T00:32:07;23.30;91.80
9486;DHT22;4781;48.776;9.200;2022-08-04T00:34:36;23.30;91.90
9486;DHT22;4781;48.776;9.200;2022-08-04T00:37:05;23.30;92.00
9486;DHT22;4781;48.776;9.200;2022-08-04T00:39:34;23.20;91.90
9486;DHT22;4781;48.776;9.200;2022-08-04T00:42:40;23.20;92.20
9486;DHT22;4781;48.776;9.200;2022-08-04T00:48:15;23.00;92.70
9486;DHT22;4781;48.776;9.200;2022-08-04T00:53:28;22.90;92.80
9486;DHT22;4781;48.776;9.200;2022-08-04T01:02:27;23.10;92.60
9486;DHT22;4781;48.776;9.200;2022-08-04T01:05:05;23.00;92.60
9486;DHT22;4781;48.776;9.200;2022-08-04T01:14:13;22.70;93.80
9486;DHT22;4781;48.776;9.200;2022-08-04T01:17:05;22.60;94.30
9486;DHT22;4781;48.776;9.200;2022-08-04T01:26:25;22.50;94.20
9486;DHT22;4781;48.776;9.200;2022-08-04T01:29:06;22.50;93.70
9486;DHT22;4781;48.776;9.200;2022-08-04T01:32:05;22.40;93.50
9486;DHT22;4781;48.776;9.200;2022-08-04T01:34:52;22.40;93.90
9486;DHT22;4781;48.776;9.200;2022-08-04T01:40:19;22.30;93.80
9486;DHT22;4781;48.776;9.200;2022-08-04T01:42:51;22.20;93.80
9486;DHT22;4781;48.776;9.200;2022-08-04T01:48:09;22.20;93.90
9486;DHT22;4781;48.776;9.200;2022-08-04T01:50:38;22.20;93.50
9486;DHT22;4781;48.776;9.200;2022-08-04T01:53:08;22.20;93.80
9486;DHT22;4781;48.776;9.200;2022-08-04T01:55:38;22.20;93.70
9486;DHT22;4781;48.776;9.200;2022-08-04T01:58:08;22.10;94.10
9486;DHT22;4781;48.776;9.200;2022-08-04T02:00:39;22.00;93.70
9486;DHT22;4781;48.776;9.200;2022-08-04T02:03:10;22.00;93.80
9486;DHT22;4781;48.776;9.200;2022-08-04T02:05:41;22.00;94.30
9486;DHT22;4781;48.776;9.200;2022-08-04T02:08:27;22.00;94.00
9486;DHT22;4781;48.776;9.200;2022-08-04T02:11:16;21.90;94.60
9486;DHT22;4781;48.776;9.200;2022-08-04T02:14:01;21.80;95.10
9486;DHT22;4781;48.776;9.200;2022-08-04T02:16:49;21.70;94.70
9486;DHT22;4781;48.776;9.200;2022-08-04T02:19:32;21.70;94.90
9486;DHT22;4781;48.776;9.200;2022-08-04T02:22:06;21.70;95.00
9486;DHT22;4781;48.776;9.200;2022-08-04T02:24:39;21.60;95.10
9486;DHT22;4781;48.776;9.200;2022-08-04T02:27:07;21.60;94.70
9486;DHT22;4781;48.776;9.200;2022-08-04T02:29:52;21.60;94.90
9486;DHT22;4781;48.776;9.200;2022-08-04T02:32:26;21.60;94.80
9486;DHT22;4781;48.776;9.200;2022-08-04T02:35:13;21.60;95.30
9486;DHT22;4781;48.776;9.200;2022-08-04T02:37:43;21.60;95.10
9486;DHT22;4781;48.776;9.200;2022-08-04T02:40:12;21.60;95.00
9486;DHT22;4781;48.776;9.200;2022-08-04T02:42:45;21.60;95.10
9486;DHT22;4781;48.776;9.200;2022-08-04T02:45:17;21.50;95.10
9486;DHT22;4781;48.776;9.200;2022-08-04T02:47:47;21.50;94.80
9486;DHT22;4781;48.776;9.200;2022-08-04T02:50:18;21.50;95.00
9486;DHT22;4781;48.776;9.200;2022-08-04T02:52:49;21.50;95.40
9486;DHT22;4781;48.776;9.200;2022-08-04T02:55:19;21.50;95.00
9486;DHT22;4781;48.776;9.200;2022-08-04T02:57:48;21.40;95.20
9486;DHT22;4781;48.776;9.200;2022-08-04T03:00:17;21.40;95.60
9486;DHT22;4781;48.776;9.200;2022-08-04T03:17:27;21.10;96.80
9486;DHT22;4781;48.776;9.200;2022-08-04T03:39:13;21.00;98.00
9486;DHT22;4781;48.776;9.200;2022-08-04T03:42:01;20.90;97.90
9486;DHT22;4781;48.776;9.200;2022-08-04T03:54:00;20.80;98.10
9486;DHT22;4781;48.776;9.200;2022-08-04T04:02:52;20.70;98.80
9486;DHT22;4781;48.776;9.200;2022-08-04T04:15:02;20.60;98.90
9486;DHT22;4781;48.776;9.200;2022-08-04T04:18:05;20.70;98.70
9486;DHT22;4781;48.776;9.200;2022-08-04T04:24:00;20.70;98.40
9486;DHT22;4781;48.776;9.200;2022-08-04T04:26:58;20.70;98.90
9486;DHT22;4781;48.776;9.200;2022-08-04T04:35:10;20.70;99.80
9486;DHT22;4781;48.776;9.200;2022-08-04T04:40:27;20.70;99.90
9486;DHT22;4781;48.776;9.200;2022-08-04T04:46:11;20.70;99.90
9486;DHT22;4781;48.776;9.200;2022-08-04T04:51:57;20.70;99.90
9486;DHT22;4781;48.776;9.200;2022-08-04T04:54:38;20.70;99.90
9486;DHT22;4781;48.776;9.200;2022-08-04T04:57:28;20.80;99.90
9486;DHT22;4781;48.776;9.200;2022-08-04T05:00:00;20.80;99.90
9486;DHT22;4781;48.776;9.200;2022-08-04T05:02:58;20.90;99.90
9486;DHT22;4781;48.776;9.200;2022-08-04T05:09:05;21.10;99.90
9486;DHT22;4781;48.776;9.200;2022-08-04T05:14:45;21.30;99.90
9486;DHT22;4781;48.776;9.200;2022-08-04T05:17:35;21.40;99.90
9486;DHT22;4781;48.776;9.200;2022-08-04T05:20:09;21.40;99.90
9486;DHT22;4781;48.776;9.200;2022-08-04T05:25:33;21.60;99.90
9486;DHT22;4781;48.776;9.200;2022-08-04T05:28:14;21.80;99.90
9486;DHT22;4781;48.776;9.200;2022-08-04T05:30:49;21.80;99.90
9486;DHT22;4781;48.776;9.200;2022-08-04T05:33:35;21.90;99.90
9486;DHT22;4781;48.776;9.200;2022-08-04T05:35:56;22.10;99.90
9486;DHT22;4781;48.776;9.200;2022-08-04T05:38:29;22.20;99.90
9486;DHT22;4781;48.776;9.200;2022-08-04T05:40:58;22.30;99.90
9486;DHT22;4781;48.776;9.200;2022-08-04T05:43:27;22.40;99.90
9486;DHT22;4781;48.776;9.200;2022-08-04T05:45:55;22.50;99.90
9486;DHT22;4781;48.776;9.200;2022-08-04T05:48:24;22.60;99.90
9486;DHT22;4781;48.776;9.200;2022-08-04T05:50:54;22.70;99.90
9486;DHT22;4781;48.776;9.200;2022-08-04T05:53:24;22.80;99.90
9486;DHT22;4781;48.776;9.200;2022-08-04T05:55:53;23.00;99.60
9486;DHT22;4781;48.776;9.200;2022-08-04T05:58:22;23.10;99.80
9486;DHT22;4781;48.776;9.200;2022-08-04T06:00:52;23.20;99.40
9486;DHT22;4781;48.776;9.200;2022-08-04T06:03:22;23.40;99.30
9486;DHT22;4781;48.776;9.200;2022-08-04T06:05:51;23.60;99.10
9486;DHT22;4781;48.776;9.200;2022-08-04T06:08:19;23.80;98.30
9486;DHT22;4781;48.776;9.200;2022-08-04T06:10:49;24.00;98.90
9486;DHT22;4781;48.776;9.200;2022-08-04T06:13:19;24.20;98.60
9486;DHT22;4781;48.776;9.200;2022-08-04T06:15:52;24.40;98.30
9486;DHT22;4781;48.776;9.200;2022-08-04T06:18:24;25.70;97.90
9486;DHT22;4781;48.776;9.200;2022-08-04T06:20:56;28.60;96.60
9486;DHT22;4781;48.776;9.200;2022-08-04T06:23:27;28.60;95.00
9486;DHT22;4781;48.776;9.200;2022-08-04T06:25:59;26.50;95.60
9486;DHT22;4781;48.776;9.200;2022-08-04T06:28:28;25.60;96.90
9486;DHT22;4781;48.776;9.200;2022-08-04T06:30:58;25.30;97.40
9486;DHT22;4781;48.776;9.200;2022-08-04T06:33:30;25.20;97.00
9486;DHT22;4781;48.776;9.200;2022-08-04T06:36:02;25.20;97.40
9486;DHT22;4781;48.776;9.200;2022-08-04T06:38:33;25.30;97.70
9486;DHT22;4781;48.776;9.200;2022-08-04T06:41:05;25.30;96.30
9486;DHT22;4781;48.776;9.200;2022-08-04T06:43:36;25.50;96.60
9486;DHT22;4781;48.776;9.200;2022-08-04T06:46:05;25.60;97.60
9486;DHT22;4781;48.776;9.200;2022-08-04T06:48:35;25.70;97.20
9486;DHT22;4781;48.776;9.200;2022-08-04T06:51:05;25.70;97.10
9486;DHT22;4781;48.776;9.200;2022-08-04T06:53:34;25.90;97.50
9486;DHT22;4781;48.776;9.200;2022-08-04T06:56:03;26.00;97.70
9486;DHT22;4781;48.776;9.200;2022-08-04T06:58:32;26.20;97.20
9486;DHT22;4781;48.776;9.200;2022-08-04T07:01:02;26.20;97.40
9486;DHT22;4781;48.776;9.200;2022-08-04T07:03:31;26.30;97.10
9486;DHT22;4781;48.776;9.200;2022-08-04T07:06:00;26.40;97.60
9486;DHT22;4781;48.776;9.200;2022-08-04T07:08:28;26.40;97.20
9486;DHT22;4781;48.776;9.200;2022-08-04T07:10:58;26.50;97.30
9486;DHT22;4781;48.776;9.200;2022-08-04T07:13:29;26.70;97.40
9486;DHT22;4781;48.776;9.200;2022-08-04T07:15:59;26.80;96.80
9486;DHT22;4781;48.776;9.200;2022-08-04T07:18:30;26.90;96.50
9486;DHT22;4781;48.776;9.200;2022-08-04T07:20:58;27.00;96.20
9486;DHT22;4781;48.776;9.200;2022-08-04T07:23:27;27.00;98.20
9486;DHT22;4781;48.776;9.200;2022-08-04T07:25:56;27.00;97.80
9486;DHT22;4781;48.776;9.200;2022-08-04T07:28:27;27.10;97.70
9486;DHT22;4781;48.776;9.200;2022-08-04T07:30:57;27.10;97.40
9486;DHT22;4781;48.776;9.200;2022-08-04T07:33:27;27.10;97.60
9486;DHT22;4781;48.776;9.200;2022-08-04T07:35:56;27.30;96.20
9486;DHT22;4781;48.776;9.200;2022-08-04T07:38:24;27.50;97.00
9486;DHT22;4781;48.776;9.200;2022-08-04T07:40:54;27.60;97.00
9486;DHT22;4781;48.776;9.200;2022-08-04T07:43:23;27.80;96.30
9486;DHT22;4781;48.776;9.200;2022-08-04T07:45:53;27.90;96.10
9486;DHT22;4781;48.776;9.200;2022-08-04T07:48:21;28.00;96.00
9486;DHT22;4781;48.776;9.200;2022-08-04T07:50:50;28.20;95.80
9486;DHT22;4781;48.776;9.200;2022-08-04T07:53:20;28.40;93.10
9486;DHT22;4781;48.776;9.200;2022-08-04T07:55:49;28.50;95.10
9486;DHT22;4781;48.776;9.200;2022-08-04T07:58:17;28.60;94.90
9486;DHT22;4781;48.776;9.200;2022-08-04T08:00:46;28.80;92.70
9486;DHT22;4781;48.776;9.200;2022-08-04T08:03:16;29.00;92.90
9486;DHT22;4781;48.776;9.200;2022-08-04T08:05:46;29.20;92.10
9486;DHT22;4781;48.776;9.200;2022-08-04T08:08:15;29.40;91.00
9486;DHT22;4781;48.776;9.200;2022-08-04T08:10:46;29.50;91.10
9486;DHT22;4781;48.776;9.200;2022-08-04T08:13:15;29.80;91.30
9486;DHT22;4781;48.776;9.200;2022-08-04T08:15:45;30.00;91.30
9486;DHT22;4781;48.776;9.200;2022-08-04T08:18:14;30.10;90.60
9486;DHT22;4781;48.776;9.200;2022-08-04T08:20:45;30.20;89.90
9486;DHT22;4781;48.776;9.200;2022-08-04T08:23:14;30.40;89.60
9486;DHT22;4781;48.776;9.200;2022-08-04T08:25:42;30.50;90.50
9486;DHT22;4781;48.776;9.200;2022-08-04T08:28:11;30.70;90.10
9486;DHT22;4781;48.776;9.200;2022-08-04T08:30:41;30.90;90.40
9486;DHT22;4781;48.776;9.200;2022-08-04T08:33:12;31.00;88.70
9486;DHT22;4781;48.776;9.200;2022-08-04T08:35:56;31.20;89.10
9486;DHT22;4781;48.776;9.200;2022-08-04T08:38:42;31.30;89.00
9486;DHT22;4781;48.776;9.200;2022-08-04T08:50:02;31.80;85.10
9486;DHT22;4781;48.776;9.200;2022-08-04T09:02:18;32.40;84.10
9486;DHT22;4781;48.776;9.200;2022-08-04T09:04:47;32.60;85.10
9486;DHT22;4781;48.776;9.200;2022-08-04T09:07:54;32.70;83.50
9486;DHT22;4781;48.776;9.200;2022-08-04T09:10:50;32.60;83.80
9486;DHT22;4781;48.776;9.200;2022-08-04T09:13:44;33.00;83.10
9486;DHT22;4781;48.776;9.200;2022-08-04T09:19:07;33.30;80.60
9486;DHT22;4781;48.776;9.200;2022-08-04T09:21:39;33.40;79.70
9486;DHT22;4781;48.776;9.200;2022-08-04T09:27:29;33.60;81.40
9486;DHT22;4781;48.776;9.200;2022-08-04T09:30:08;33.70;80.20
9486;DHT22;4781;48.776;9.200;2022-08-04T09:35:53;34.00;80.40
9486;DHT22;4781;48.776;9.200;2022-08-04T09:38:32;34.30;80.20
9486;DHT22;4781;48.776;9.200;2022-08-04T09:47:43;34.70;76.50
9486;DHT22;4781;48.776;9.200;2022-08-04T09:50:33;34.60;75.90
9486;DHT22;4781;48.776;9.200;2022-08-04T09:53:54;34.70;75.10
9486;DHT22;4781;48.776;9.200;2022-08-04T09:56:38;34.60;74.40
9486;DHT22;4781;48.776;9.200;2022-08-04T09:59:40;34.90;72.60
9486;DHT22;4781;48.776;9.200;2022-08-04T10:02:14;35.00;72.80
9486;DHT22;4781;48.776;9.200;2022-08-04T10:04:43;35.00;71.20
9486;DHT22;4781;48.776;9.200;2022-08-04T10:07:37;34.90;71.50
9486;DHT22;4781;48.776;9.200;2022-08-04T10:19:27;35.90;70.00
9486;DHT22;4781;48.776;9.200;2022-08-04T10:27:44;35.40;68.80
9486;DHT22;4781;48.776;9.200;2022-08-04T10:30:16;35.90;70.20
9486;DHT22;4781;48.776;9.200;2022-08-04T10:33:03;36.30;66.10
9486;DHT22;4781;48.776;9.200;2022-08-04T10:35:41;36.20;66.10
9486;DHT22;4781;48.776;9.200;2022-08-04T10:41:26;36.20;66.30
9486;DHT22;4781;48.776;9.200;2022-08-04T10:47:18;36.30;62.90
9486;DHT22;4781;48.776;9.200;2022-08-04T10:50:00;36.80;62.10
9486;DHT22;4781;48.776;9.200;2022-08-04T10:52:32;36.80;63.40
9486;DHT22;4781;48.776;9.200;2022-08-04T10:57:58;37.40;65.60
9486;DHT22;4781;48.776;9.200;2022-08-04T11:00:28;37.30;61.90
9486;DHT22;4781;48.776;9.200;2022-08-04T11:05:54;37.40;63.30
9486;DHT22;4781;48.776;9.200;2022-08-04T11:08:35;37.60;62.40
9486;DHT22;4781;48.776;9.200;2022-08-04T11:11:38;37.50;60.10
9486;DHT22;4781;48.776;9.200;2022-08-04T11:14:22;37.40;61.80
9486;DHT22;4781;48.776;9.200;2022-08-04T11:16:54;37.40;60.50
9486;DHT22;4781;48.776;9.200;2022-08-04T11:22:28;37.10;60.40
9486;DHT22;4781;48.776;9.200;2022-08-04T11:25:11;37.10;61.20
9486;DHT22;4781;48.776;9.200;2022-08-04T11:30:56;37.50;58.30
9486;DHT22;4781;48.776;9.200;2022-08-04T11:37:05;38.00;60.20
9486;DHT22;4781;48.776;9.200;2022-08-04T11:40:06;37.80;59.30
9486;DHT22;4781;48.776;9.200;2022-08-04T11:42:36;37.80;57.80
9486;DHT22;4781;48.776;9.200;2022-08-04T11:45:12;37.50;60.00
9486;DHT22;4781;48.776;9.200;2022-08-04T11:51:06;37.80;57.70
9486;DHT22;4781;48.776;9.200;2022-08-04T11:53:37;37.80;57.70
9486;DHT22;4781;48.776;9.200;2022-08-04T11:56:10;38.20;58.20
9486;DHT22;4781;48.776;9.200;2022-08-04T11:58:39;38.10;59.00
9486;DHT22;4781;48.776;9.200;2022-08-04T12:01:17;38.20;57.50
9486;DHT22;4781;48.776;9.200;2022-08-04T12:12:31;37.90;59.20
9486;DHT22;4781;48.776;9.200;2022-08-04T12:15:27;38.30;56.80
9486;DHT22;4781;48.776;9.200;2022-08-04T12:21:17;38.40;55.60
9486;DHT22;4781;48.776;9.200;2022-08-04T12:23:44;38.10;55.80
9486;DHT22;4781;48.776;9.200;2022-08-04T12:26:23;38.10;56.40
9486;DHT22;4781;48.776;9.200;2022-08-04T12:28:59;38.40;58.00
9486;DHT22;4781;48.776;9.200;2022-08-04T12:31:56;38.60;56.90
9486;DHT22;4781;48.776;9.200;2022-08-04T12:34:42;38.20;57.10
9486;DHT22;4781;48.776;9.200;2022-08-04T12:37:33;37.90;55.30
9486;DHT22;4781;48.776;9.200;2022-08-04T12:40:31;37.90;57.50
9486;DHT22;4781;48.776;9.200;2022-08-04T12:43:22;38.00;56.40
9486;DHT22;4781;48.776;9.200;2022-08-04T12:46:10;38.00;56.70
9486;DHT22;4781;48.776;9.200;2022-08-04T12:48:43;37.80;55.70
9486;DHT22;4781;48.776;9.200;2022-08-04T12:51:13;37.50;56.50
9486;DHT22;4781;48.776;9.200;2022-08-04T12:53:44;37.40;55.50
9486;DHT22;4781;48.776;9.200;2022-08-04T12:56:13;37.30;56.70
9486;DHT22;4781;48.776;9.200;2022-08-04T12:58:45;37.20;57.10
9486;DHT22;4781;48.776;9.200;2022-08-04T13:01:22;37.40;56.80
9486;DHT22;4781;48.776;9.200;2022-08-04T13:03:54;37.50;56.40
9486;DHT22;4781;48.776;9.200;2022-08-04T13:06:26;37.30;56.90
9486;DHT22;4781;48.776;9.200;2022-08-04T13:09:03;37.40;56.70
9486;DHT22;4781;48.776;9.200;2022-08-04T13:11:38;37.40;55.20
9486;DHT22;4781;48.776;9.200;2022-08-04T13:14:12;37.50;56.40
9486;DHT22;4781;48.776;9.200;2022-08-04T13:16:42;37.60;57.00
9486;DHT22;4781;48.776;9.200;2022-08-04T13:19:11;37.80;57.60
9486;DHT22;4781;48.776;9.200;2022-08-04T13:21:43;37.90;55.50
9486;DHT22;4781;48.776;9.200;2022-08-04T13:24:14;38.00;56.00
9486;DHT22;4781;48.776;9.200;2022-08-04T13:26:55;38.10;55.40
9486;DHT22;4781;48.776;9.200;2022-08-04T13:29:37;38.20;55.50
9486;DHT22;4781;48.776;9.200;2022-08-04T13:32:08;38.00;55.90
9486;DHT22;4781;48.776;9.200;2022-08-04T13:34:40;38.00;55.90
9486;DHT22;4781;48.776;9.200;2022-08-04T13:37:09;38.10;56.30
9486;DHT22;4781;48.776;9.200;2022-08-04T13:42:29;38.10;56.20
9486;DHT22;4781;48.776;9.200;2022-08-04T13:44:59;38.10;54.70
9486;DHT22;4781;48.776;9.200;2022-08-04T13:47:35;38.20;55.20
9486;DHT22;4781;48.776;9.200;2022-08-04T13:50:21;38.10;55.30
9486;DHT22;4781;48.776;9.200;2022-08-04T13:52:54;38.10;55.40
9486;DHT22;4781;48.776;9.200;2022-08-04T13:55:30;38.20;55.10
9486;DHT22;4781;48.776;9.200;2022-08-04T13:58:13;38.20;53.60
9486;DHT22;4781;48.776;9.200;2022-08-04T14:00:45;38.00;55.70
9486;DHT22;4781;48.776;9.200;2022-08-04T14:03:28;38.20;55.90
9486;DHT22;4781;48.776;9.200;2022-08-04T14:06:15;38.40;55.10
9486;DHT22;4781;48.776;9.200;2022-08-04T14:08:59;38.50;54.80
9486;DHT22;4781;48.776;9.200;2022-08-04T14:11:42;38.50;55.70
9486;DHT22;4781;48.776;9.200;2022-08-04T14:14:15;38.40;54.00
9486;DHT22;4781;48.776;9.200;2022-08-04T14:17:05;38.10;55.40
9486;DHT22;4781;48.776;9.200;2022-08-04T14:19:49;37.90;54.80
9486;DHT22;4781;48.776;9.200;2022-08-04T14:22:29;38.00;54.70
9486;DHT22;4781;48.776;9.200;2022-08-04T14:25:09;38.10;55.00
9486;DHT22;4781;48.776;9.200;2022-08-04T14:30:25;38.20;55.00
9486;DHT22;4781;48.776;9.200;2022-08-04T14:35:36;38.10;54.90
9486;DHT22;4781;48.776;9.200;2022-08-04T14:38:07;38.10;54.50
9486;DHT22;4781;48.776;9.200;2022-08-04T14:40:41;38.10;54.40
9486;DHT22;4781;48.776;9.200;2022-08-04T14:43:15;37.90;53.50
9486;DHT22;4781;48.776;9.200;2022-08-04T14:45:44;37.60;53.30
9486;DHT22;4781;48.776;9.200;2022-08-04T14:48:14;37.30;53.70
9486;DHT22;4781;48.776;9.200;2022-08-04T14:50:49;37.20;53.60
9486;DHT22;4781;48.776;9.200;2022-08-04T14:53:20;37.30;55.50
9486;DHT22;4781;48.776;9.200;2022-08-04T14:55:54;37.30;54.20
9486;DHT22;4781;48.776;9.200;2022-08-04T14:58:28;37.50;53.90
9486;DHT22;4781;48.776;9.200;2022-08-04T15:00:59;37.80;54.70
9486;DHT22;4781;48.776;9.200;2022-08-04T15:03:30;37.80;54.80
9486;DHT22;4781;48.776;9.200;2022-08-04T15:05:59;37.80;54.90
9486;DHT22;4781;48.776;9.200;2022-08-04T15:08:29;37.80;53.10
9486;DHT22;4781;48.776;9.200;2022-08-04T15:10:59;37.60;53.60
9486;DHT22;4781;48.776;9.200;2022-08-04T15:13:30;37.70;53.80
9486;DHT22;4781;48.776;9.200;2022-08-04T15:15:59;37.80;54.30
9486;DHT22;4781;48.776;9.200;2022-08-04T15:18:27;37.90;54.00
9486;DHT22;4781;48.776;9.200;2022-08-04T15:20:56;37.90;53.90
9486;DHT22;4781;48.776;9.200;2022-08-04T15:23:27;37.90;54.90
9486;DHT22;4781;48.776;9.200;2022-08-04T15:25:59;37.60;52.90
9486;DHT22;4781;48.776;9.200;2022-08-04T15:28:28;37.60;55.00
9486;DHT22;4781;48.776;9.200;2022-08-04T15:31:00;37.70;55.50
9486;DHT22;4781;48.776;9.200;2022-08-04T15:33:31;37.80;55.40
9486;DHT22;4781;48.776;9.200;2022-08-04T15:39:52;38.00;54.10
9486;DHT22;4781;48.776;9.200;2022-08-04T15:41:50;38.10;54.60
9486;DHT22;4781;48.776;9.200;2022-08-04T15:44:53;38.00;54.70
9486;DHT22;4781;48.776;9.200;2022-08-04T15:47:19;37.80;53.60
9486;DHT22;4781;48.776;9.200;2022-08-04T15:50:08;37.60;52.80
9486;DHT22;4781;48.776;9.200;2022-08-04T15:55:42;37.20;53.30
9486;DHT22;4781;48.776;9.200;2022-08-04T15:58:12;36.90;53.50
9486;DHT22;4781;48.776;9.200;2022-08-04T16:14:06;37.20;53.10
9486;DHT22;4781;48.776;9.200;2022-08-04T16:22:38;36.90;55.30
9486;DHT22;4781;48.776;9.200;2022-08-04T16:25:08;36.80;53.20
9486;DHT22;4781;48.776;9.200;2022-08-04T16:27:38;36.80;53.10
9486;DHT22;4781;48.776;9.200;2022-08-04T16:30:11;36.60;54.00
9486;DHT22;4781;48.776;9.200;2022-08-04T16:32:47;36.60;55.30
9486;DHT22;4781;48.776;9.200;2022-08-04T16:35:25;36.50;55.00
9486;DHT22;4781;48.776;9.200;2022-08-04T16:38:11;36.30;54.30
9486;DHT22;4781;48.776;9.200;2022-08-04T16:40:42;36.30;54.50
9486;DHT22;4781;48.776;9.200;2022-08-04T16:43:15;36.20;55.50
9486;DHT22;4781;48.776;9.200;2022-08-04T16:45:46;36.10;54.60
9486;DHT22;4781;48.776;9.200;2022-08-04T16:48:22;35.90;54.60
9486;DHT22;4781;48.776;9.200;2022-08-04T16:56:30;35.70;55.80
9486;DHT22;4781;48.776;9.200;2022-08-04T16:59:05;35.60;55.20
9486;DHT22;4781;48.776;9.200;2022-08-04T17:01:44;35.60;55.40
9486;DHT22;4781;48.776;9.200;2022-08-04T17:04:14;35.40;56.20
9486;DHT22;4781;48.776;9.200;2022-08-04T17:06:44;35.40;56.30
9486;DHT22;4781;48.776;9.200;2022-08-04T17:09:15;35.20;55.40
9486;DHT22;4781;48.776;9.200;2022-08-04T17:11:45;35.20;56.00
9486;DHT22;4781;48.776;9.200;2022-08-04T17:14:22;35.10;55.90
9486;DHT22;4781;48.776;9.200;2022-08-04T17:16:55;35.00;55.80
9486;DHT22;4781;48.776;9.200;2022-08-04T17:19:25;34.90;56.20
9486;DHT22;4781;48.776;9.200;2022-08-04T17:21:56;34.80;55.30
9486;DHT22;4781;48.776;9.200;2022-08-04T17:24:31;34.80;55.90
9486;DHT22;4781;48.776;9.200;2022-08-04T17:27:01;34.70;56.70
9486;DHT22;4781;48.776;9.200;2022-08-04T17:29:29;34.60;56.80
9486;DHT22;4781;48.776;9.200;2022-08-04T17:31:58;34.50;57.40
9486;DHT22;4781;48.776;9.200;2022-08-04T17:34:26;34.40;56.70
9486;DHT22;4781;48.776;9.200;2022-08-04T17:36:55;34.40;56.20
9486;DHT22;4781;48.776;9.200;2022-08-04T17:39:26;34.30;56.70
9486;DHT22;4781;48.776;9.200;2022-08-04T17:41:56;34.20;56.40
9486;DHT22;4781;48.776;9.200;2022-08-04T17:44:35;34.20;56.70
9486;DHT22;4781;48.776;9.200;2022-08-04T17:47:16;34.10;57.40
9486;DHT22;4781;48.776;9.200;2022-08-04T17:49:45;34.00;58.50
9486;DHT22;4781;48.776;9.200;2022-08-04T17:52:20;33.80;58.20
9486;DHT22;4781;48.776;9.200;2022-08-04T17:54:57;33.80;59.40
9486;DHT22;4781;48.776;9.200;2022-08-04T17:57:27;33.70;58.70
9486;DHT22;4781;48.776;9.200;2022-08-04T17:59:57;33.60;60.10
9486;DHT22;4781;48.776;9.200;2022-08-04T18:02:28;33.40;62.90
9486;DHT22;4781;48.776;9.200;2022-08-04T18:04:57;33.00;68.90
9486;DHT22;4781;48.776;9.200;2022-08-04T18:07:37;32.80;64.00
9486;DHT22;4781;48.776;9.200;2022-08-04T18:10:07;32.60;63.40
9486;DHT22;4781;48.776;9.200;2022-08-04T18:12:36;32.40;63.90
9486;DHT22;4781;48.776;9.200;2022-08-04T18:15:09;32.40;68.00
9486;DHT22;4781;48.776;9.200;2022-08-04T18:17:51;32.20;66.20
9486;DHT22;4781;48.776;9.200;2022-08-04T18:20:23;32.00;64.60
9486;DHT22;4781;48.776;9.200;2022-08-04T18:22:51;31.80;68.10
9486;DHT22;4781;48.776;9.200;2022-08-04T18:25:20;31.60;67.10
9486;DHT22;4781;48.776;9.200;2022-08-04T18:27:55;31.60;64.80
9486;DHT22;4781;48.776;9.200;2022-08-04T18:30:25;31.60;64.80
9486;DHT22;4781;48.776;9.200;2022-08-04T18:32:55;31.60;66.30
9486;DHT22;4781;48.776;9.200;2022-08-04T18:35:23;31.60;65.40
9486;DHT22;4781;48.776;9.200;2022-08-04T18:37:54;31.50;67.70
9486;DHT22;4781;48.776;9.200;2022-08-04T18:40:22;31.40;65.60
9486;DHT22;4781;48.776;9.200;2022-08-04T18:42:51;31.30;66.00
9486;DHT22;4781;48.776;9.200;2022-08-04T18:45:19;31.20;66.20
9486;DHT22;4781;48.776;9.200;2022-08-04T18:47:49;31.10;65.50
9486;DHT22;4781;48.776;9.200;2022-08-04T18:50:18;31.00;66.20
9486;DHT22;4781;48.776;9.200;2022-08-04T18:52:46;30.90;67.50
9486;DHT22;4781;48.776;9.200;2022-08-04T18:55:15;30.80;67.50
9486;DHT22;4781;48.776;9.200;2022-08-04T18:57:43;30.70;69.10
9486;DHT22;4781;48.776;9.200;2022-08-04T19:00:12;30.70;67.70
9486;DHT22;4781;48.776;9.200;2022-08-04T19:02:40;30.60;68.50
9486;DHT22;4781;48.776;9.200;2022-08-04T19:05:09;30.40;68.90
9486;DHT22;4781;48.776;9.200;2022-08-04T19:07:38;30.30;68.40
9486;DHT22;4781;48.776;9.200;2022-08-04T19:10:06;30.20;69.40
9486;DHT22;4781;48.776;9.200;2022-08-04T19:12:35;30.20;69.10
9486;DHT22;4781;48.776;9.200;2022-08-04T19:15:03;30.10;68.70
9486;DHT22;4781;48.776;9.200;2022-08-04T19:17:32;30.10;68.40
9486;DHT22;4781;48.776;9.200;2022-08-04T19:20:01;30.10;67.80
9486;DHT22;4781;48.776;9.200;2022-08-04T19:22:30;30.00;70.10
9486;DHT22;4781;48.776;9.200;2022-08-04T19:24:58;30.00;69.40
9486;DHT22;4781;48.776;9.200;2022-08-04T19:27:26;29.90;70.20
9486;DHT22;4781;48.776;9.200;2022-08-04T19:29:55;29.80;69.80
9486;DHT22;4781;48.776;9.200;2022-08-04T19:32:23;29.70;68.50
9486;DHT22;4781;48.776;9.200;2022-08-04T19:34:52;29.60;69.40
9486;DHT22;4781;48.776;9.200;2022-08-04T19:37:20;29.50;70.10
9486;DHT22;4781;48.776;9.200;2022-08-04T19:39:49;29.50;70.70
9486;DHT22;4781;48.776;9.200;2022-08-04T19:42:18;29.50;70.50
9486;DHT22;4781;48.776;9.200;2022-08-04T19:44:47;29.40;70.70
9486;DHT22;4781;48.776;9.200;2022-08-04T19:47:15;29.30;70.90
9486;DHT22;4781;48.776;9.200;2022-08-04T19:49:44;29.30;71.00
9486;DHT22;4781;48.776;9.200;2022-08-04T19:52:12;29.20;71.90
9486;DHT22;4781;48.776;9.200;2022-08-04T19:54:41;29.10;72.30
9486;DHT22;4781;48.776;9.200;2022-08-04T19:57:09;29.00;73.00
9486;DHT22;4781;48.776;9.200;2022-08-04T19:59:38;28.90;73.20
9486;DHT22;4781;48.776;9.200;2022-08-04T20:02:06;28.90;73.30
9486;DHT22;4781;48.776;9.200;2022-08-04T20:04:34;28.80;72.60
9486;DHT22;4781;48.776;9.200;2022-08-04T20:07:03;28.80;73.50
9486;DHT22;4781;48.776;9.200;2022-08-04T20:09:31;28.70;75.70
9486;DHT22;4781;48.776;9.200;2022-08-04T20:11:59;28.80;73.20
9486;DHT22;4781;48.776;9.200;2022-08-04T20:14:28;28.70;73.10
9486;DHT22;4781;48.776;9.200;2022-08-04T20:16:56;28.70;74.10
9486;DHT22;4781;48.776;9.200;2022-08-04T20:19:25;28.70;72.80
9486;DHT22;4781;48.776;9.200;2022-08-04T20:21:53;28.60;72.80
9486;DHT22;4781;48.776;9.200;2022-08-04T20:24:22;28.60;72.70
9486;DHT22;4781;48.776;9.200;2022-08-04T20:26:51;28.60;72.60
9486;DHT22;4781;48.776;9.200;2022-08-04T20:29:19;28.60;72.30
9486;DHT22;4781;48.776;9.200;2022-08-04T20:31:47;28.60;72.30
9486;DHT22;4781;48.776;9.200;2022-08-04T20:34:16;28.60;71.90
9486;DHT22;4781;48.776;9.200;2022-08-04T20:36:44;28.60;72.00
9486;DHT22;4781;48.776;9.200;2022-08-04T20:39:13;28.50;72.50
9486;DHT22;4781;48.776;9.200;2022-08-04T20:41:41;28.50;72.90
9486;DHT22;4781;48.776;9.200;2022-08-04T20:44:10;28.50;74.80
9486;DHT22;4781;48.776;9.200;2022-08-04T20:46:38;28.30;73.90
9486;DHT22;4781;48.776;9.200;2022-08-04T20:49:07;28.30;74.50
9486;DHT22;4781;48.776;9.200;2022-08-04T20:51:37;28.30;74.50